Time;durP1;ratioP1;P1;durP2;ratioP2;P2;SDS_P1;SDS_P2;PMS_P1;PMS_P2;Temp;Humidity;BMP_temperature;BMP_pressure;BME280_temperature;BME280_humidity;BME280_pressure;Samples;Min_cycle;Max_cycle;Signal;HPM_P1;HPM_P2
2023/04/21 00:00:13;;;;;;;;;;;;;;;16.22;71.97;100997.69;5070339;28;19931;-84
2023/04/21 00:02:40;;;;;;;;;;;;;;;16.20;71.78;100990.59;5072117;28;19940;-84
2023/04/21 00:05:08;;;;;;;;;;;;;;;16.21;71.91;100995.91;5070507;28;19919;-85
2023/04/21 00:07:34;;;;;;;;;;;;;;;16.21;71.67;100993.28;5067646;28;20286;-84
2023/04/21 00:09:59;;;;;;;;;;;;;;;16.19;71.67;100994.97;5071245;28;19916;-84
2023/04/21 00:12:25;;;;;;;;;;;;;;;16.21;71.78;100995.00;5070417;28;19950;-85
2023/04/21 00:14:50;;;;;;;;;;;;;;;16.21;71.85;100989.72;5053947;28;19920;-84
2023/04/21 00:17:15;;;;;;;;;;;;;;;16.18;71.91;100989.63;5070193;28;19920;-84
2023/04/21 00:19:41;;;;;;;;;;;;;;;16.21;71.77;100988.00;5071095;28;20309;-85
2023/04/21 00:22:10;;;;;;;;;;;;;;;16.18;71.87;100994.91;5070190;28;20393;-85
2023/04/21 00:24:36;;;;;;;;;;;;;;;16.18;71.84;100992.28;5070293;28;20258;-84
2023/04/21 00:27:02;;;;;;;;;;;;;;;16.16;71.88;100991.31;5070682;28;20377;-84
2023/04/21 00:29:28;;;;;;;;;;;;;;;16.18;71.63;100987.00;5070836;28;19916;-84
2023/04/21 00:31:53;;;;;;;;;;;;;;;16.18;71.50;100980.00;5036954;28;19913;-85
2023/04/21 00:34:18;;;;;;;;;;;;;;;16.15;71.68;100982.53;5053469;28;20364;-84
2023/04/21 00:36:44;;;;;;;;;;;;;;;16.13;71.89;100971.03;5068819;28;20447;-84
2023/04/21 00:39:09;;;;;;;;;;;;;;;16.14;71.99;100972.81;5070843;28;20397;-84
2023/04/21 00:41:35;;;;;;;;;;;;;;;16.15;71.68;100965.81;5053662;28;19912;-84
2023/04/21 00:44:05;;;;;;;;;;;;;;;16.14;71.70;100970.19;5053290;28;19908;-84
2023/04/21 00:46:30;;;;;;;;;;;;;;;16.13;71.76;100968.41;5068893;28;19916;-84
2023/04/21 00:48:56;;;;;;;;;;;;;;;16.14;71.68;100959.66;5053098;28;20308;-84
2023/04/21 00:51:22;;;;;;;;;;;;;;;16.13;71.67;100957.88;5071313;28;19973;-84
2023/04/21 00:53:47;;;;;;;;;;;;;;;16.12;71.65;100953.44;5068771;28;19912;-84
2023/04/21 00:56:13;;;;;;;;;;;;;;;16.12;71.66;100945.53;5071204;28;19958;-84
2023/04/21 00:58:40;;;;;;;;;;;;;;;16.12;71.65;100940.25;5069655;28;20523;-84
2023/04/21 01:01:06;;;;;;;;;;;;;;;16.12;71.76;100934.09;5053970;28;19955;-84
2023/04/21 01:03:31;;;;;;;;;;;;;;;16.12;71.73;100936.72;5052377;28;20410;-84
2023/04/21 01:05:57;;;;;;;;;;;;;;;16.13;71.77;100935.88;5068836;28;19978;-84
2023/04/21 01:08:22;;;;;;;;;;;;;;;16.10;71.68;100926.13;5069827;28;20472;-84
2023/04/21 01:10:47;;;;;;;;;;;;;;;16.10;71.79;100927.88;5068542;28;20455;-84
2023/04/21 01:13:13;;;;;;;;;;;;;;;16.11;71.67;100922.66;5069448;28;20340;-85
2023/04/21 01:15:38;;;;;;;;;;;;;;;16.10;71.68;100912.97;5068512;28;20428;-83
2023/04/21 01:18:04;;;;;;;;;;;;;;;16.10;71.74;100905.06;5070750;28;20355;-84
2023/04/21 01:20:29;;;;;;;;;;;;;;;16.09;71.73;100900.66;5069451;28;19924;-84
2023/04/21 01:22:54;;;;;;;;;;;;;;;16.08;71.78;100906.75;5070963;28;20381;-84
2023/04/21 01:25:24;;;;;;;;;;;;;;;16.08;71.75;100914.66;5070372;28;19916;-85
2023/04/21 01:27:50;;;;;;;;;;;;;;;16.09;71.63;100916.44;5070172;28;19912;-83
2023/04/21 01:30:16;;;;;;;;;;;;;;;16.11;71.69;100925.31;5053137;28;19931;-84
2023/04/21 01:32:41;;;;;;;;;;;;;;;16.07;71.67;100918.13;5070735;28;19920;-85
2023/04/21 01:35:07;;;;;;;;;;;;;;;16.06;71.60;100904.06;5058250;28;20400;-85
2023/04/21 01:37:32;;;;;;;;;;;;;;;16.10;71.62;100909.44;5051478;28;19916;-84
2023/04/21 01:39:59;;;;;;;;;;;;;;;16.07;71.71;100911.13;5068548;28;19920;-84
2023/04/21 01:42:26;;;;;;;;;;;;;;;16.11;71.46;100908.56;5034406;28;19920;-84
2023/04/21 01:44:52;;;;;;;;;;;;;;;16.07;71.55;100913.75;5068447;28;19920;-84
2023/04/21 01:47:18;;;;;;;;;;;;;;;16.08;71.55;100909.38;5068165;28;19994;-84
2023/04/21 01:49:43;;;;;;;;;;;;;;;16.05;71.71;100911.91;5069515;28;20398;-84
2023/04/21 01:52:09;;;;;;;;;;;;;;;16.07;71.55;100913.75;5067421;28;19916;-84
2023/04/21 01:54:34;;;;;;;;;;;;;;;16.07;71.59;100912.88;5068020;28;19950;-85
2023/04/21 01:57:01;;;;;;;;;;;;;;;16.06;71.60;100913.69;5069255;28;20396;-85
2023/04/21 01:59:26;;;;;;;;;;;;;;;16.05;71.61;100912.81;5069217;28;19913;-84
2023/04/21 02:01:52;;;;;;;;;;;;;;;16.07;71.60;100915.50;5059133;28;19916;-84
2023/04/21 02:04:17;;;;;;;;;;;;;;;16.07;71.56;100910.22;5068585;28;19916;-84
2023/04/21 02:06:43;;;;;;;;;;;;;;;16.05;71.69;100911.91;5067931;28;20370;-84
2023/04/21 02:09:08;;;;;;;;;;;;;;;16.06;71.57;100911.06;5052568;28;20447;-84
2023/04/21 02:11:33;;;;;;;;;;;;;;;16.05;71.56;100904.03;5068043;28;19975;-85
2023/04/21 02:13:59;;;;;;;;;;;;;;;16.04;71.50;100904.84;5069415;28;20290;-84
2023/04/21 02:16:25;;;;;;;;;;;;;;;16.05;71.35;100902.28;5052326;28;20420;-85
2023/04/21 02:18:56;;;;;;;;;;;;;;;16.03;71.41;100895.16;5052432;28;20389;-85
2023/04/21 02:21:22;;;;;;;;;;;;;;;16.03;71.37;100903.06;5069310;28;19920;-84
2023/04/21 02:23:47;;;;;;;;;;;;;;;16.02;71.52;100896.91;5072785;28;20384;-84
2023/04/21 02:26:13;;;;;;;;;;;;;;;16.01;71.57;100881.94;5051901;28;19916;-84
2023/04/21 02:28:38;;;;;;;;;;;;;;;16.00;71.60;100892.41;5063916;28;19923;-84
2023/04/21 02:31:04;;;;;;;;;;;;;;;16.02;71.54;100885.47;5071271;28;19920;-84
2023/04/21 02:33:29;;;;;;;;;;;;;;;16.03;71.30;100885.53;5053837;28;20428;-85
2023/04/21 02:35:55;;;;;;;;;;;;;;;16.03;71.32;100879.38;5068374;28;19916;-85
2023/04/21 02:38:20;;;;;;;;;;;;;;;16.02;71.45;100874.94;5064977;28;20310;-84
2023/04/21 02:40:46;;;;;;;;;;;;;;;16.01;71.34;100878.41;5065871;28;19942;-85
2023/04/21 02:43:14;;;;;;;;;;;;;;;16.01;71.30;100868.78;5065392;28;20378;-85
2023/04/21 02:45:40;;;;;;;;;;;;;;;15.99;71.55;100874.84;5061668;28;19923;-85
2023/04/21 02:48:05;;;;;;;;;;;;;;;15.99;71.52;100873.09;5053685;28;19916;-85
2023/04/21 02:50:31;;;;;;;;;;;;;;;15.99;71.45;100874.84;5046692;28;19931;-84
2023/04/21 02:52:56;;;;;;;;;;;;;;;15.99;71.26;100877.47;5039909;28;19944;-85
2023/04/21 02:55:21;;;;;;;;;;;;;;;15.97;71.46;100877.41;5066734;28;19966;-85
2023/04/21 02:57:47;;;;;;;;;;;;;;;15.98;71.39;100884.47;5071361;28;20369;-85
2023/04/21 03:00:13;;;;;;;;;;;;;;;15.99;71.29;100877.47;5063280;28;19984;-84
2023/04/21 03:02:39;;;;;;;;;;;;;;;15.98;71.31;100876.59;5068527;28;19916;-84
2023/04/21 03:05:05;;;;;;;;;;;;;;;16.00;71.32;100880.16;5053607;28;19925;-85
2023/04/21 03:07:30;;;;;;;;;;;;;;;15.98;71.31;100881.84;5069509;28;20009;-85
2023/04/21 03:09:56;;;;;;;;;;;;;;;15.97;71.44;100881.78;5069482;28;20386;-85
2023/04/21 03:12:21;;;;;;;;;;;;;;;15.98;71.40;100888.84;5067421;28;19928;-84
2023/04/21 03:14:47;;;;;;;;;;;;;;;15.98;71.33;100894.09;5070970;28;20374;-85
2023/04/21 03:17:12;;;;;;;;;;;;;;;15.99;71.23;100902.06;5049588;28;19921;-85
2023/04/21 03:19:38;;;;;;;;;;;;;;;15.99;71.13;100895.91;5048623;28;20409;-85
2023/04/21 03:22:05;;;;;;;;;;;;;;;15.98;71.17;100888.84;5059410;28;19916;-84
2023/04/21 03:24:31;;;;;;;;;;;;;;;15.99;71.20;100888.00;5056448;28;19916;-84
2023/04/21 03:26:56;;;;;;;;;;;;;;;15.85;71.20;100863.81;5069120;28;20600;-84
2023/04/21 03:29:22;;;;;;;;;;;;;;;16.00;71.05;100890.69;5061532;28;19966;-85
2023/04/21 03:31:47;;;;;;;;;;;;;;;16.01;70.97;100894.22;5053445;28;19939;-85
2023/04/21 03:34:13;;;;;;;;;;;;;;;15.99;71.03;100896.78;5069345;28;19916;-82
2023/04/21 03:36:38;;;;;;;;;;;;;;;15.99;71.02;100898.53;5069961;28;20061;-84
2023/04/21 03:39:03;;;;;;;;;;;;;;;15.95;71.25;100908.06;5061736;28;20283;-83
2023/04/21 03:41:29;;;;;;;;;;;;;;;15.96;71.30;100908.94;5068256;28;20450;-84
2023/04/21 03:43:54;;;;;;;;;;;;;;;15.94;71.25;100900.09;5052532;28;19916;-85
2023/04/21 03:46:20;;;;;;;;;;;;;;;15.95;71.28;100904.53;5065190;28;20447;-84
2023/04/21 03:48:46;;;;;;;;;;;;;;;15.95;71.11;100910.69;5068500;28;20427;-83
2023/04/21 03:51:12;;;;;;;;;;;;;;;15.97;71.01;100905.50;5062680;28;19943;-84
2023/04/21 03:53:37;;;;;;;;;;;;;;;15.97;71.05;100910.75;5054369;28;19918;-84
2023/04/21 03:56:03;;;;;;;;;;;;;;;15.95;71.16;100915.97;5068731;28;20408;-83
2023/04/21 03:58:28;;;;;;;;;;;;;;;15.93;71.20;100924.66;5069454;28;19916;-83
2023/04/21 04:00:53;;;;;;;;;;;;;;;15.92;71.28;100925.50;5051526;28;20041;-83
2023/04/21 04:03:19;;;;;;;;;;;;;;;15.93;71.15;100936.09;5070531;28;20297;-84
2023/04/21 04:05:44;;;;;;;;;;;;;;;15.92;71.31;100923.78;5069152;28;20492;-83
2023/04/21 04:08:10;;;;;;;;;;;;;;;15.89;71.28;100936.81;5058730;28;19930;-83
2023/04/21 04:10:35;;;;;;;;;;;;;;;15.91;71.12;100934.25;5062098;28;20348;-84
2023/04/21 04:13:01;;;;;;;;;;;;;;;15.91;71.18;100935.13;5049729;28;19916;-84
2023/04/21 04:15:26;;;;;;;;;;;;;;;15.92;71.28;100942.22;5045098;28;19942;-84
2023/04/21 04:17:52;;;;;;;;;;;;;;;15.89;71.19;100936.81;5065842;28;19920;-86
2023/04/21 04:20:17;;;;;;;;;;;;;;;15.89;71.25;100944.72;5052781;28;19952;-85
2023/04/21 04:22:43;;;;;;;;;;;;;;;15.89;71.18;100942.09;5066978;28;20388;-85
2023/04/21 04:25:08;;;;;;;;;;;;;;;15.90;71.13;100943.00;5048526;28;20389;-84
2023/04/21 04:27:34;;;;;;;;;;;;;;;15.89;71.14;100944.72;5070223;28;20390;-83
2023/04/21 04:29:59;;;;;;;;;;;;;;;15.88;71.14;100949.09;5069606;28;19936;-83
2023/04/21 04:32:27;;;;;;;;;;;;;;;15.88;71.26;100949.09;5067055;28;19990;-84
2023/04/21 04:34:54;;;;;;;;;;;;;;;15.87;71.37;100955.22;5063485;28;19970;-84
2023/04/21 04:37:20;;;;;;;;;;;;;;;15.86;71.28;100950.78;5040215;28;19920;-85
2023/04/21 04:39:46;;;;;;;;;;;;;;;15.85;71.29;100941.09;5068504;28;19950;-85
2023/04/21 04:42:11;;;;;;;;;;;;;;;15.84;71.28;100947.19;5063009;28;19960;-85
2023/04/21 04:44:37;;;;;;;;;;;;;;;15.84;71.37;100949.84;5047059;28;19946;-84
2023/04/21 04:47:03;;;;;;;;;;;;;;;15.84;71.38;100948.94;5068882;28;20326;-84
2023/04/21 04:49:28;;;;;;;;;;;;;;;15.83;71.38;100940.16;5064770;28;19917;-83
2023/04/21 04:51:53;;;;;;;;;;;;;;;15.82;71.32;100940.09;5050429;28;19917;-83
2023/04/21 04:54:19;;;;;;;;;;;;;;;15.81;71.35;100931.31;5067078;28;19916;-82
2023/04/21 04:56:44;;;;;;;;;;;;;;;15.78;71.47;100933.81;5034755;28;20429;-83
2023/04/21 04:59:10;;;;;;;;;;;;;;;15.79;71.32;100929.44;5051718;28;20017;-84
2023/04/21 05:01:37;;;;;;;;;;;;;;;15.77;71.53;100928.47;5064871;28;19916;-85
2023/04/21 05:04:02;;;;;;;;;;;;;;;15.76;71.36;100932.84;5049631;28;19920;-84
2023/04/21 05:06:28;;;;;;;;;;;;;;;15.78;71.61;100939.06;5065475;28;19950;-84
2023/04/21 05:08:54;;;;;;;;;;;;;;;15.76;71.66;100937.25;5044866;28;20392;-85
2023/04/21 05:11:20;;;;;;;;;;;;;;;15.75;71.56;100936.34;5066280;28;19923;-85
2023/04/21 05:13:45;;;;;;;;;;;;;;;15.77;71.44;100944.28;5066198;28;19924;-84
2023/04/21 05:16:11;;;;;;;;;;;;;;;15.71;71.52;100950.22;5067029;28;19924;-85
2023/04/21 05:18:37;;;;;;;;;;;;;;;15.73;71.66;100943.28;5068540;28;20730;-85
2023/04/21 05:21:02;;;;;;;;;;;;;;;15.72;71.53;100936.22;5042071;28;19959;-83
2023/04/21 05:23:28;;;;;;;;;;;;;;;15.75;71.50;100933.72;5049636;28;19917;-84
2023/04/21 05:25:56;;;;;;;;;;;;;;;15.71;71.73;100941.44;5067106;28;19916;-85
2023/04/21 05:28:22;;;;;;;;;;;;;;;15.74;71.55;100945.06;5047283;28;19916;-85
2023/04/21 05:30:50;;;;;;;;;;;;;;;15.73;71.53;100948.56;5046892;28;19931;-84
2023/04/21 05:33:18;;;;;;;;;;;;;;;15.75;71.42;100951.25;5067676;28;19964;-84
2023/04/21 05:35:45;;;;;;;;;;;;;;;15.73;71.31;100940.66;5049667;28;19921;-90
2023/04/21 05:38:11;;;;;;;;;;;;;;;15.52;71.67;100940.75;5042952;28;19995;-82
2023/04/21 05:40:36;;;;;;;;;;;;;;;15.69;71.33;100936.09;5031288;28;20012;-84
2023/04/21 05:43:02;;;;;;;;;;;;;;;15.68;71.43;100940.47;5030154;28;19920;-84
2023/04/21 05:45:28;;;;;;;;;;;;;;;15.69;71.42;100938.72;5049955;28;20301;-84
2023/04/21 05:47:54;;;;;;;;;;;;;;;15.65;71.58;100931.56;5042434;28;19923;-84
2023/04/21 05:50:20;;;;;;;;;;;;;;;15.67;71.41;100937.78;5042238;28;20448;-84
2023/04/21 05:52:45;;;;;;;;;;;;;;;15.68;71.44;100936.91;5031842;28;19974;-85
2023/04/21 05:55:11;;;;;;;;;;;;;;;15.67;71.62;100943.94;5034574;28;19920;-85
2023/04/21 05:57:37;;;;;;;;;;;;;;;15.67;71.51;100949.19;5051773;28;19927;-85
2023/04/21 06:00:07;;;;;;;;;;;;;;;15.70;71.60;100952.78;5053551;28;19921;-85
2023/04/21 06:02:34;;;;;;;;;;;;;;;15.72;71.42;100948.50;5053651;28;20556;-84
2023/04/21 06:05:00;;;;;;;;;;;;;;;15.68;71.54;100958.91;5037224;28;19916;-83
2023/04/21 06:07:26;;;;;;;;;;;;;;;15.69;71.62;100951.88;5068056;28;19961;-85
2023/04/21 06:09:51;;;;;;;;;;;;;;;15.70;71.71;100955.41;5069010;28;19988;-85
2023/04/21 06:12:16;;;;;;;;;;;;;;;15.66;71.63;100952.69;5053461;28;19928;-84
2023/04/21 06:14:42;;;;;;;;;;;;;;;15.68;71.74;100952.72;5037979;28;19975;-84
2023/04/21 06:17:08;;;;;;;;;;;;;;;15.68;71.57;100948.38;5073604;28;20408;-84
2023/04/21 06:19:37;;;;;;;;;;;;;;;15.66;71.56;100947.41;5073694;28;19912;-83
2023/04/21 06:22:02;;;;;;;;;;;;;;;15.66;71.73;100950.06;5071337;28;19923;-83
2023/04/21 06:24:31;;;;;;;;;;;;;;;15.65;71.69;100945.59;5053675;28;19917;-82
2023/04/21 06:26:57;;;;;;;;;;;;;;;15.64;71.80;100946.47;5063844;28;19912;-83
2023/04/21 06:29:22;;;;;;;;;;;;;;;15.65;71.67;100956.13;5056828;28;20007;-84
2023/04/21 06:31:48;;;;;;;;;;;;;;;15.66;71.71;100957.94;5055682;28;20011;-84
2023/04/21 06:34:13;;;;;;;;;;;;;;;15.64;71.82;100956.06;5055516;28;19920;-84
2023/04/21 06:36:39;;;;;;;;;;;;;;;15.66;71.74;100955.31;5054449;28;20381;-84
2023/04/21 06:39:04;;;;;;;;;;;;;;;15.66;71.84;100955.31;5072496;28;19977;-84
2023/04/21 06:41:30;;;;;;;;;;;;;;;15.67;71.81;100953.56;5051932;28;19916;-84
2023/04/21 06:43:55;;;;;;;;;;;;;;;15.68;71.69;100948.38;5072303;28;19908;-84
2023/04/21 06:46:21;;;;;;;;;;;;;;;15.68;71.64;100950.09;5055211;28;19917;-85
2023/04/21 06:48:47;;;;;;;;;;;;;;;15.66;71.79;100946.50;5072796;28;19912;-84
2023/04/21 06:51:12;;;;;;;;;;;;;;;15.65;71.84;100945.59;5072914;28;20409;-84
2023/04/21 06:53:38;;;;;;;;;;;;;;;15.66;71.67;100946.50;5072167;28;19908;-84
2023/04/21 06:56:03;;;;;;;;;;;;;;;15.66;71.79;100954.41;5055230;28;19924;-84
2023/04/21 06:58:31;;;;;;;;;;;;;;;15.63;71.99;100949.03;5071996;28;19935;-84
2023/04/21 07:00:57;;;;;;;;;;;;;;;15.67;71.65;100949.19;5073512;28;20015;-83
2023/04/21 07:03:22;;;;;;;;;;;;;;;15.65;71.81;100939.47;5072916;28;20062;-84
2023/04/21 07:05:48;;;;;;;;;;;;;;;15.64;71.83;100940.28;5062955;28;20354;-83
2023/04/21 07:08:13;;;;;;;;;;;;;;;15.65;71.77;100942.09;5071874;28;19923;-85
2023/04/21 07:10:39;;;;;;;;;;;;;;;15.63;71.95;100947.28;5072453;28;19916;-85
2023/04/21 07:13:05;;;;;;;;;;;;;;;15.64;71.89;100957.00;5054329;28;19916;-83
2023/04/21 07:15:31;;;;;;;;;;;;;;;15.62;71.95;100958.69;5063667;28;20377;-84
2023/04/21 07:17:57;;;;;;;;;;;;;;;15.65;71.80;100957.88;5068663;28;19920;-83
2023/04/21 07:20:23;;;;;;;;;;;;;;;15.68;71.88;100961.53;5075457;28;20381;-85
2023/04/21 07:22:48;;;;;;;;;;;;;;;15.66;71.79;100962.28;5058237;28;20007;-84
2023/04/21 07:25:14;;;;;;;;;;;;;;;15.64;71.95;100962.25;5072966;28;20294;-85
2023/04/21 07:27:39;;;;;;;;;;;;;;;15.66;71.67;100962.28;5069199;28;19919;-84
2023/04/21 07:30:05;;;;;;;;;;;;;;;15.63;71.83;100963.09;5071936;28;20290;-85
2023/04/21 07:32:31;;;;;;;;;;;;;;;15.62;71.83;100965.66;5071192;28;19912;-85
2023/04/21 07:34:57;;;;;;;;;;;;;;;15.61;71.88;100954.22;5035052;28;19909;-85
2023/04/21 07:37:22;;;;;;;;;;;;;;;15.64;71.89;100956.06;5061766;28;19920;-84
2023/04/21 07:39:48;;;;;;;;;;;;;;;15.67;71.74;100959.72;5072346;28;19913;-85
2023/04/21 07:42:13;;;;;;;;;;;;;;;15.67;71.83;100967.63;5058271;28;19966;-85
2023/04/21 07:44:39;;;;;;;;;;;;;;;15.67;71.70;100966.72;5049326;28;19956;-83
2023/04/21 07:47:04;;;;;;;;;;;;;;;15.66;71.76;100967.56;5065971;28;19912;-85
2023/04/21 07:49:30;;;;;;;;;;;;;;;15.63;71.88;100967.47;5071166;28;20438;-85
2023/04/21 07:51:55;;;;;;;;;;;;;;;15.70;71.73;100971.22;5066756;28;19920;-85
2023/04/21 07:54:21;;;;;;;;;;;;;;;15.65;71.80;100963.16;5068852;28;19923;-85
2023/04/21 07:56:46;;;;;;;;;;;;;;;15.67;72.03;100966.72;5070686;28;19920;-85
2023/04/21 07:59:11;;;;;;;;;;;;;;;15.69;71.82;100962.41;5054225;28;19916;-85
2023/04/21 08:01:37;;;;;;;;;;;;;;;15.70;71.78;100971.22;5068747;28;19920;-85
2023/04/21 08:04:02;;;;;;;;;;;;;;;15.67;71.86;100972.00;5070744;28;19935;-85
2023/04/21 08:06:28;;;;;;;;;;;;;;;15.67;72.03;100967.63;5070794;28;19999;-85
2023/04/21 08:08:54;;;;;;;;;;;;;;;15.67;72.14;100972.88;5068526;28;19916;-85
2023/04/21 08:11:21;;;;;;;;;;;;;;;15.63;71.92;100975.34;5070101;28;19923;-83
2023/04/21 08:13:46;;;;;;;;;;;;;;;15.68;71.81;100971.13;5068076;28;20290;-84
2023/04/21 08:16:12;;;;;;;;;;;;;;;15.67;71.80;100972.88;5070829;28;20427;-84
2023/04/21 08:18:37;;;;;;;;;;;;;;;15.70;71.75;100974.72;5071042;28;19913;-85
2023/04/21 08:21:03;;;;;;;;;;;;;;;15.63;71.87;100981.50;5070591;28;19913;-84
2023/04/21 08:23:29;;;;;;;;;;;;;;;15.68;71.79;100992.22;5069564;28;19947;-84
2023/04/21 08:25:55;;;;;;;;;;;;;;;15.68;71.94;100997.47;5049778;28;20453;-84
2023/04/21 08:28:20;;;;;;;;;;;;;;;15.69;72.03;101012.44;5063229;28;20003;-84
2023/04/21 08:30:46;;;;;;;;;;;;;;;15.49;72.33;101014.31;5070073;28;20002;-84
2023/04/21 08:33:12;;;;;;;;;;;;;;;15.46;72.05;101012.47;5069994;28;20290;-84
2023/04/21 08:35:39;;;;;;;;;;;;;;;15.38;72.09;101010.38;5041521;28;19967;-85
2023/04/21 08:38:05;;;;;;;;;;;;;;;15.39;72.33;101017.47;5086250;28;19978;-84
2023/04/21 08:40:35;;;;;;;;;;;;;;;15.43;72.21;101020.25;5081253;28;19916;-85
2023/04/21 08:43:00;;;;;;;;;;;;;;;15.47;72.11;101016.91;5059290;28;19909;-84
2023/04/21 08:45:29;;;;;;;;;;;;;;;15.50;72.06;101023.13;5053262;28;19920;-85
2023/04/21 08:47:54;;;;;;;;;;;;;;;15.57;71.82;101017.25;5071324;28;19928;-84
2023/04/21 08:50:20;;;;;;;;;;;;;;;15.59;71.71;101018.19;5069555;28;19908;-84
2023/04/21 08:52:45;;;;;;;;;;;;;;;15.58;71.81;101019.06;5052912;28;19916;-84
2023/04/21 08:55:12;;;;;;;;;;;;;;;15.56;71.61;101020.72;5070713;28;20266;-84
2023/04/21 08:57:37;;;;;;;;;;;;;;;15.56;71.80;101020.72;5074492;28;19916;-85
2023/04/21 09:00:03;;;;;;;;;;;;;;;15.61;71.80;101016.53;5069552;28;20300;-85
2023/04/21 09:02:29;;;;;;;;;;;;;;;15.63;71.71;101010.47;5070727;28;19913;-85
2023/04/21 09:04:55;;;;;;;;;;;;;;;15.66;71.56;101021.13;5068106;28;19982;-85
2023/04/21 09:07:36;;;;;;;;;;;;;;;15.53;71.43;101026.75;5046916;28;20341;-84
2023/04/21 09:10:02;;;;;;;;;;;;;;;15.43;71.98;101022.91;5065193;28;20025;-85
2023/04/21 09:12:31;;;;;;;;;;;;;;;15.43;71.86;101020.25;5027446;28;20378;-85
2023/04/21 09:14:57;;;;;;;;;;;;;;;15.54;71.43;101027.69;5043237;28;19990;-85
2023/04/21 09:17:27;;;;;;;;;;;;;;;15.46;71.38;101030.88;5041930;28;20398;-85
2023/04/21 09:19:52;;;;;;;;;;;;;;;15.57;71.43;101026.03;5045813;28;19917;-85
2023/04/21 09:22:18;;;;;;;;;;;;;;;15.61;71.07;101020.03;5043886;28;20294;-84
2023/04/21 09:24:44;;;;;;;;;;;;;;;15.60;71.22;101023.53;5056336;28;20906;-84
2023/04/21 09:27:09;;;;;;;;;;;;;;;15.62;71.21;101023.56;5044350;28;19920;-84
2023/04/21 09:29:35;;;;;;;;;;;;;;;15.66;71.02;101015.88;5046994;28;19927;-84
2023/04/21 09:32:00;;;;;;;;;;;;;;;15.62;71.12;101005.13;5059927;28;20464;-84
2023/04/21 09:34:26;;;;;;;;;;;;;;;15.61;71.29;101008.63;5047455;28;20353;-85
2023/04/21 09:37:01;;;;;;;;;;;;;;;15.59;71.17;101010.31;5050622;28;20314;-84
2023/04/21 09:39:30;;;;;;;;;;;;;;;15.63;71.18;101001.69;5048711;28;19928;-84
2023/04/21 09:41:58;;;;;;;;;;;;;;;15.65;71.12;101010.53;5051591;28;19921;-84
2023/04/21 09:44:24;;;;;;;;;;;;;;;15.69;71.13;101009.81;5048038;28;19924;-84
2023/04/21 09:46:50;;;;;;;;;;;;;;;15.68;71.23;101010.63;5051121;28;19924;-85
2023/04/21 09:49:20;;;;;;;;;;;;;;;15.68;71.25;101008.94;5048157;28;20047;-84
2023/04/21 09:51:45;;;;;;;;;;;;;;;15.70;71.20;101005.44;5050448;28;19917;-84
2023/04/21 09:54:17;;;;;;;;;;;;;;;15.65;71.19;101000.91;5045329;28;19916;-85
2023/04/21 09:56:43;;;;;;;;;;;;;;;15.54;70.58;100975.91;5050703;28;19959;-85
2023/04/21 09:59:10;;;;;;;;;;;;;;;15.60;70.96;100991.03;5050395;28;19963;-82
2023/04/21 10:01:37;;;;;;;;;;;;;;;15.64;71.22;100999.13;5047393;28;19924;-83
2023/04/21 10:04:03;;;;;;;;;;;;;;;15.62;71.06;101002.50;5047662;28;19916;-85
2023/04/21 10:06:28;;;;;;;;;;;;;;;15.62;71.16;100986.72;5046813;28;19939;-84
2023/04/21 10:08:55;;;;;;;;;;;;;;;15.70;70.78;100992.28;5051121;28;19917;-84
2023/04/21 10:11:20;;;;;;;;;;;;;;;15.62;70.83;100991.97;5068179;28;19966;-84
2023/04/21 10:13:45;;;;;;;;;;;;;;;15.57;70.97;100977.75;5052694;28;20006;-84
2023/04/21 10:16:11;;;;;;;;;;;;;;;15.58;71.09;100982.19;5049969;28;19924;-84
2023/04/21 10:18:37;;;;;;;;;;;;;;;15.49;71.00;100985.34;5043903;28;20409;-84
2023/04/21 10:21:04;;;;;;;;;;;;;;;15.38;71.26;100982.31;5045099;28;19921;-84
2023/04/21 10:23:37;;;;;;;;;;;;;;;15.47;70.60;100973.88;5036882;28;20241;-84
2023/04/21 10:26:26;;;;;;;;;;;;;;;15.47;70.75;100979.13;5044391;28;19942;-84
2023/04/21 10:28:54;;;;;;;;;;;;;;;15.50;70.84;100974.00;5030424;28;19917;-84
2023/04/21 10:31:25;;;;;;;;;;;;;;;15.56;70.73;100968.97;5050212;28;19920;-84
2023/04/21 10:34:14;;;;;;;;;;;;;;;15.53;70.77;100970.59;5048602;28;19916;-84
2023/04/21 10:36:42;;;;;;;;;;;;;;;15.62;70.43;100968.28;5038993;28;19970;-84
2023/04/21 10:39:11;;;;;;;;;;;;;;;15.51;70.70;100973.16;5048155;28;20428;-84
2023/04/21 10:41:37;;;;;;;;;;;;;;;15.47;70.56;100973.88;5067823;28;19916;-84
2023/04/21 10:44:08;;;;;;;;;;;;;;;15.62;70.34;100977.09;5066709;28;19919;-83
2023/04/21 10:46:34;;;;;;;;;;;;;;;15.67;70.37;100974.63;5052118;28;20333;-82
2023/04/21 10:49:06;;;;;;;;;;;;;;;15.57;70.44;100970.75;5051499;28;20358;-84
2023/04/21 10:51:32;;;;;;;;;;;;;;;15.63;70.48;100972.72;5055954;28;19916;-84
2023/04/21 10:53:57;;;;;;;;;;;;;;;15.63;70.24;100970.97;5049209;28;20366;-84
2023/04/21 10:56:23;;;;;;;;;;;;;;;15.69;70.59;100978.22;5044524;28;20305;-84
2023/04/21 10:58:49;;;;;;;;;;;;;;;15.60;70.45;100986.69;5034430;28;20359;-84
2023/04/21 11:01:16;;;;;;;;;;;;;;;15.67;70.32;100977.25;5051282;28;19917;-84
2023/04/21 11:03:41;;;;;;;;;;;;;;;15.68;69.76;100986.94;5049392;28;19917;-84
2023/04/21 11:06:13;;;;;;;;;;;;;;;15.62;70.17;100978.81;5050937;28;20073;-84
2023/04/21 11:08:53;;;;;;;;;;;;;;;15.67;69.97;100982.53;5066907;28;20029;-83
2023/04/21 11:11:28;;;;;;;;;;;;;;;15.70;70.47;100984.38;5051289;28;19927;-83
2023/04/21 11:13:54;;;;;;;;;;;;;;;15.75;69.96;100986.38;5054704;28;20066;-84
2023/04/21 11:16:19;;;;;;;;;;;;;;;15.77;70.38;100981.16;5063309;28;20006;-83
2023/04/21 11:18:45;;;;;;;;;;;;;;;15.74;70.35;100981.94;5062120;28;20370;-84
2023/04/21 11:21:17;;;;;;;;;;;;;;;15.72;70.25;100990.63;5070838;28;19916;-84
2023/04/21 11:23:49;;;;;;;;;;;;;;;15.78;69.97;100980.31;5064523;28;19975;-84
2023/04/21 11:26:14;;;;;;;;;;;;;;;15.72;70.18;100983.63;5069783;28;19970;-84
2023/04/21 11:28:43;;;;;;;;;;;;;;;15.77;70.27;100986.41;5065470;28;20394;-84
2023/04/21 11:31:08;;;;;;;;;;;;;;;15.74;70.53;100983.69;5068564;28;20671;-84
2023/04/21 11:33:37;;;;;;;;;;;;;;;15.73;70.67;100982.78;5062826;28;19920;-84
2023/04/21 11:36:06;;;;;;;;;;;;;;;15.77;70.38;100975.88;5046551;28;19920;-84
2023/04/21 11:38:41;;;;;;;;;;;;;;;15.77;70.22;100986.41;5070493;28;19917;-84
2023/04/21 11:41:06;;;;;;;;;;;;;;;15.76;70.61;100972.34;5052716;28;19920;-83
2023/04/21 11:43:32;;;;;;;;;;;;;;;15.78;70.62;100980.31;5052437;28;19977;-84
2023/04/21 11:46:15;;;;;;;;;;;;;;;15.74;70.68;100976.66;5047375;28;19984;-84
2023/04/21 11:48:41;;;;;;;;;;;;;;;15.78;70.62;100978.56;5061719;28;19966;-83
2023/04/21 11:51:13;;;;;;;;;;;;;;;15.82;70.43;100975.22;5066226;28;19927;-84
2023/04/21 11:53:38;;;;;;;;;;;;;;;15.81;70.80;100975.16;5070857;28;19912;-84
2023/04/21 11:56:04;;;;;;;;;;;;;;;15.79;70.91;100968.94;5051460;28;19917;-84
2023/04/21 11:58:30;;;;;;;;;;;;;;;15.79;70.87;100969.84;5049048;28;19916;-83
2023/04/21 12:00:55;;;;;;;;;;;;;;;15.81;70.91;100969.88;5057631;28;19969;-82
2023/04/21 12:03:22;;;;;;;;;;;;;;;15.80;70.91;100970.75;5052175;28;20423;-83
2023/04/21 12:05:54;;;;;;;;;;;;;;;15.86;70.68;100976.22;5069796;28;20016;-83
2023/04/21 12:08:20;;;;;;;;;;;;;;;15.85;70.96;100967.44;5064386;28;19923;-84
2023/04/21 12:10:45;;;;;;;;;;;;;;;15.83;70.98;100974.38;5066386;28;19917;-84
2023/04/21 12:13:11;;;;;;;;;;;;;;;15.85;70.93;100967.44;5034654;28;19916;-84
2023/04/21 12:15:36;;;;;;;;;;;;;;;15.90;70.75;100966.72;5052475;28;19916;-85
2023/04/21 12:18:02;;;;;;;;;;;;;;;15.83;71.09;100963.84;5066889;28;20393;-85
2023/04/21 12:20:27;;;;;;;;;;;;;;;15.86;70.58;100957.78;5040534;28;19939;-85
2023/04/21 12:22:53;;;;;;;;;;;;;;;15.87;70.82;100971.03;5066609;28;19912;-84
2023/04/21 12:25:18;;;;;;;;;;;;;;;15.88;70.70;100970.16;5068456;28;19997;-84
2023/04/21 12:27:56;;;;;;;;;;;;;;;15.91;70.66;100969.38;5067984;28;19912;-86
2023/04/21 12:30:22;;;;;;;;;;;;;;;15.86;70.81;100958.69;5068908;28;20382;-86